sensor_id;sensor_type;location;lat;lon;timestamp;pressure;altitude;pressure_sealevel;temperature;humidity
23281;BME280;11809;56.390;-3.266;2023-02-03T00:00:51;100937.06;;;15.83;54.01
23281;BME280;11809;56.390;-3.266;2023-02-03T00:03:18;100936.38;;;15.80;54.06
23281;BME280;11809;56.390;-3.266;2023-02-03T00:05:45;100942.69;;;15.77;54.14
23281;BME280;11809;56.390;-3.266;2023-02-03T00:08:13;100942.88;;;15.74;54.04
23281;BME280;11809;56.390;-3.266;2023-02-03T00:10:41;100939.47;;;15.72;54.21
23281;BME280;11809;56.390;-3.266;2023-02-03T00:13:08;100955.53;;;15.69;54.24
23281;BME280;11809;56.390;-3.266;2023-02-03T00:15:35;100938.00;;;15.66;54.29
23281;BME280;11809;56.390;-3.266;2023-02-03T00:18:02;100934.59;;;15.64;54.40
23281;BME280;11809;56.390;-3.266;2023-02-03T00:20:29;100938.28;;;15.62;54.38
23281;BME280;11809;56.390;-3.266;2023-02-03T00:23:07;100955.19;;;15.59;54.58
23281;BME280;11809;56.390;-3.266;2023-02-03T00:25:35;100952.63;;;15.58;54.39
23281;BME280;11809;56.390;-3.266;2023-02-03T00:28:02;100973.22;;;15.53;54.73
23281;BME280;11809;56.390;-3.266;2023-02-03T00:30:30;100983.91;;;15.51;54.65
23281;BME280;11809;56.390;-3.266;2023-02-03T00:32:57;101026.34;;;15.50;54.57
23281;BME280;11809;56.390;-3.266;2023-02-03T00:35:23;101031.66;;;15.50;54.52
23281;BME280;11809;56.390;-3.266;2023-02-03T00:37:51;101027.47;;;15.46;54.58
23281;BME280;11809;56.390;-3.266;2023-02-03T00:40:20;101049.56;;;15.45;54.52
23281;BME280;11809;56.390;-3.266;2023-02-03T00:42:47;101038.25;;;15.41;54.72
23281;BME280;11809;56.390;-3.266;2023-02-03T00:45:14;101062.09;;;15.41;54.47
23281;BME280;11809;56.390;-3.266;2023-02-03T00:47:41;101073.81;;;15.37;54.59
23281;BME280;11809;56.390;-3.266;2023-02-03T00:50:08;101095.06;;;15.36;54.56
23281;BME280;11809;56.390;-3.266;2023-02-03T00:52:36;101107.53;;;15.34;54.48
23281;BME280;11809;56.390;-3.266;2023-02-03T00:55:03;101112.06;;;15.32;54.66
23281;BME280;11809;56.390;-3.266;2023-02-03T00:57:31;101106.91;;;15.29;54.43
23281;BME280;11809;56.390;-3.266;2023-02-03T00:59:58;101115.03;;;15.26;54.57
23281;BME280;11809;56.390;-3.266;2023-02-03T01:02:25;101113.31;;;15.25;54.63
23281;BME280;11809;56.390;-3.266;2023-02-03T01:04:52;101108.03;;;15.25;54.74
23281;BME280;11809;56.390;-3.266;2023-02-03T01:07:19;101093.22;;;15.21;54.96
23281;BME280;11809;56.390;-3.266;2023-02-03T01:09:46;101104.75;;;15.19;54.69
23281;BME280;11809;56.390;-3.266;2023-02-03T01:12:12;101101.31;;;15.17;54.92
23281;BME280;11809;56.390;-3.266;2023-02-03T01:14:39;101092.59;;;15.15;55.08
23281;BME280;11809;56.390;-3.266;2023-02-03T01:17:06;101100.56;;;15.15;54.95
23281;BME280;11809;56.390;-3.266;2023-02-03T01:19:33;101099.78;;;15.13;54.92
23281;BME280;11809;56.390;-3.266;2023-02-03T01:22:00;101102.44;;;15.13;55.07
23281;BME280;11809;56.390;-3.266;2023-02-03T01:24:28;101094.63;;;15.10;54.89
23281;BME280;11809;56.390;-3.266;2023-02-03T01:26:56;101108.81;;;15.09;55.04
23281;BME280;11809;56.390;-3.266;2023-02-03T01:29:23;101103.66;;;15.06;54.87
23281;BME280;11809;56.390;-3.266;2023-02-03T01:31:49;101100.19;;;15.06;55.12
23281;BME280;11809;56.390;-3.266;2023-02-03T01:34:16;101087.00;;;15.04;54.94
23281;BME280;11809;56.390;-3.266;2023-02-03T01:36:44;101086.25;;;15.02;54.91
23281;BME280;11809;56.390;-3.266;2023-02-03T01:39:12;101094.25;;;15.01;55.11
23281;BME280;11809;56.390;-3.266;2023-02-03T01:41:40;101095.25;;;14.98;54.98
23281;BME280;11809;56.390;-3.266;2023-02-03T01:50:14;101095.59;;;14.92;54.93
23281;BME280;11809;56.390;-3.266;2023-02-03T01:52:50;101085.88;;;14.93;55.24
23281;BME280;11809;56.390;-3.266;2023-02-03T01:55:21;101099.16;;;14.91;54.87
23281;BME280;11809;56.390;-3.266;2023-02-03T01:57:54;101086.84;;;14.90;55.10
23281;BME280;11809;56.390;-3.266;2023-02-03T02:00:23;101081.56;;;14.90;55.11
23281;BME280;11809;56.390;-3.266;2023-02-03T02:02:51;101073.81;;;14.87;54.89
23281;BME280;11809;56.390;-3.266;2023-02-03T02:05:26;101085.22;;;14.88;54.92
23281;BME280;11809;56.390;-3.266;2023-02-03T02:07:55;101079.09;;;14.87;55.28
23281;BME280;11809;56.390;-3.266;2023-02-03T02:10:23;101109.91;;;14.88;55.01
23281;BME280;11809;56.390;-3.266;2023-02-03T02:12:54;101086.06;;;14.88;55.29
23281;BME280;11809;56.390;-3.266;2023-02-03T02:15:35;101087.03;;;14.87;55.19
23281;BME280;11809;56.390;-3.266;2023-02-03T02:48:22;101193.41;;;14.77;55.48
23281;BME280;11809;56.390;-3.266;2023-02-03T02:50:54;101184.59;;;14.76;55.41
23281;BME280;11809;56.390;-3.266;2023-02-03T02:53:25;101203.19;;;14.75;55.44
23281;BME280;11809;56.390;-3.266;2023-02-03T02:55:54;101212.06;;;14.74;55.63
23281;BME280;11809;56.390;-3.266;2023-02-03T02:58:23;101212.94;;;14.74;55.57
23281;BME280;11809;56.390;-3.266;2023-02-03T03:00:52;101226.06;;;14.76;55.50
23281;BME280;11809;56.390;-3.266;2023-02-03T03:03:22;101223.50;;;14.74;55.76
23281;BME280;11809;56.390;-3.266;2023-02-03T03:06:05;101224.44;;;14.73;55.59
23281;BME280;11809;56.390;-3.266;2023-02-03T03:09:21;101238.59;;;14.72;55.60
23281;BME280;11809;56.390;-3.266;2023-02-03T03:11:33;101250.91;;;14.73;55.56
23281;BME280;11809;56.390;-3.266;2023-02-03T03:14:04;101250.03;;;14.73;55.57
23281;BME280;11809;56.390;-3.266;2023-02-03T03:16:33;101253.53;;;14.73;55.64
23281;BME280;11809;56.390;-3.266;2023-02-03T03:19:09;101257.97;;;14.73;55.79
23281;BME280;11809;56.390;-3.266;2023-02-03T03:21:42;101269.41;;;14.73;55.84
23281;BME280;11809;56.390;-3.266;2023-02-03T03:24:16;101280.06;;;14.72;55.54
23281;BME280;11809;56.390;-3.266;2023-02-03T03:27:21;101290.63;;;14.72;55.81
23281;BME280;11809;56.390;-3.266;2023-02-03T03:29:53;101295.09;;;14.71;55.58
23281;BME280;11809;56.390;-3.266;2023-02-03T03:32:22;101289.81;;;14.71;55.96
23281;BME280;11809;56.390;-3.266;2023-02-03T03:34:50;101301.31;;;14.70;55.50
23281;BME280;11809;56.390;-3.266;2023-02-03T03:40:21;101303.09;;;14.70;55.85
23281;BME280;11809;56.390;-3.266;2023-02-03T03:42:54;101310.16;;;14.69;55.92
23281;BME280;11809;56.390;-3.266;2023-02-03T03:45:26;101316.31;;;14.70;55.74
23281;BME280;11809;56.390;-3.266;2023-02-03T03:48:04;101320.75;;;14.69;55.81
23281;BME280;11809;56.390;-3.266;2023-02-03T03:50:44;101312.03;;;14.67;55.83
23281;BME280;11809;56.390;-3.266;2023-02-03T03:53:14;101320.91;;;14.66;55.76
23281;BME280;11809;56.390;-3.266;2023-02-03T03:55:46;101317.41;;;14.66;55.82
23281;BME280;11809;56.390;-3.266;2023-02-03T03:58:22;101322.75;;;14.64;56.06
23281;BME280;11809;56.390;-3.266;2023-02-03T04:00:53;101329.75;;;14.65;55.89
23281;BME280;11809;56.390;-3.266;2023-02-03T04:03:30;101350.94;;;14.65;55.75
23281;BME280;11809;56.390;-3.266;2023-02-03T04:05:58;101343.91;;;14.64;55.73
23281;BME280;11809;56.390;-3.266;2023-02-03T04:08:24;101354.47;;;14.64;55.81
23281;BME280;11809;56.390;-3.266;2023-02-03T04:10:51;101360.72;;;14.63;55.79
23281;BME280;11809;56.390;-3.266;2023-02-03T04:13:18;101363.38;;;14.63;55.78
23281;BME280;11809;56.390;-3.266;2023-02-03T04:15:46;101385.41;;;14.64;55.88
23281;BME280;11809;56.390;-3.266;2023-02-03T04:18:14;101387.22;;;14.62;55.89
23281;BME280;11809;56.390;-3.266;2023-02-03T04:20:42;101405.69;;;14.63;55.60
23281;BME280;11809;56.390;-3.266;2023-02-03T04:23:09;101418.94;;;14.63;55.73
23281;BME280;11809;56.390;-3.266;2023-02-03T04:25:36;101423.34;;;14.63;55.96
23281;BME280;11809;56.390;-3.266;2023-02-03T04:28:03;101426.00;;;14.63;55.72
23281;BME280;11809;56.390;-3.266;2023-02-03T04:30:31;101440.94;;;14.64;55.78
23281;BME280;11809;56.390;-3.266;2023-02-03T04:32:58;101436.56;;;14.63;55.77
23281;BME280;11809;56.390;-3.266;2023-02-03T04:35:25;101449.72;;;14.64;55.89
23281;BME280;11809;56.390;-3.266;2023-02-03T04:37:52;101458.59;;;14.63;55.80
23281;BME280;11809;56.390;-3.266;2023-02-03T04:40:19;101463.91;;;14.63;55.76
23281;BME280;11809;56.390;-3.266;2023-02-03T04:42:46;101482.34;;;14.65;55.81
23281;BME280;11809;56.390;-3.266;2023-02-03T04:45:12;101473.53;;;14.64;56.05
23281;BME280;11809;56.390;-3.266;2023-02-03T04:47:39;101478.00;;;14.64;55.81
23281;BME280;11809;56.390;-3.266;2023-02-03T04:50:07;101483.28;;;14.64;55.94
23281;BME280;11809;56.390;-3.266;2023-02-03T04:52:33;101479.78;;;14.63;56.01
23281;BME280;11809;56.390;-3.266;2023-02-03T04:55:00;101493.00;;;14.63;56.17
23281;BME280;11809;56.390;-3.266;2023-02-03T04:57:29;101500.06;;;14.63;56.14
23281;BME280;11809;56.390;-3.266;2023-02-03T04:59:56;101500.84;;;14.65;56.17
23281;BME280;11809;56.390;-3.266;2023-02-03T05:02:23;101502.72;;;14.63;56.36
23281;BME280;11809;56.390;-3.266;2023-02-03T05:04:50;101519.50;;;14.62;56.05
23281;BME280;11809;56.390;-3.266;2023-02-03T05:07:16;101520.38;;;14.62;56.16
23281;BME280;11809;56.390;-3.266;2023-02-03T05:09:43;101536.25;;;14.62;56.19
23281;BME280;11809;56.390;-3.266;2023-02-03T05:12:10;101523.91;;;14.61;56.05
23281;BME280;11809;56.390;-3.266;2023-02-03T05:14:37;101531.94;;;14.60;56.31
23281;BME280;11809;56.390;-3.266;2023-02-03T05:17:04;101542.44;;;14.61;56.15
23281;BME280;11809;56.390;-3.266;2023-02-03T05:19:31;101550.38;;;14.61;56.07
23281;BME280;11809;56.390;-3.266;2023-02-03T05:21:57;101555.66;;;14.61;56.28
23281;BME280;11809;56.390;-3.266;2023-02-03T05:24:24;101560.97;;;14.61;56.09
23281;BME280;11809;56.390;-3.266;2023-02-03T05:26:51;101561.91;;;14.60;56.35
23281;BME280;11809;56.390;-3.266;2023-02-03T05:29:18;101562.78;;;14.61;56.30
23281;BME280;11809;56.390;-3.266;2023-02-03T05:31:45;101557.53;;;14.59;56.37
23281;BME280;11809;56.390;-3.266;2023-02-03T05:34:12;101556.63;;;14.60;56.14
23281;BME280;11809;56.390;-3.266;2023-02-03T05:36:39;101553.97;;;14.60;56.23
23281;BME280;11809;56.390;-3.266;2023-02-03T05:39:05;101553.84;;;14.63;56.30
23281;BME280;11809;56.390;-3.266;2023-02-03T05:41:32;101551.00;;;14.68;56.19
23281;BME280;11809;56.390;-3.266;2023-02-03T05:44:21;101539.34;;;14.72;56.40
23281;BME280;11809;56.390;-3.266;2023-02-03T05:46:51;101559.47;;;14.76;56.25
23281;BME280;11809;56.390;-3.266;2023-02-03T05:49:18;101550.63;;;14.77;56.22
23281;BME280;11809;56.390;-3.266;2023-02-03T05:51:45;101547.88;;;14.78;55.82
23281;BME280;11809;56.390;-3.266;2023-02-03T05:54:12;101539.06;;;14.78;55.95
23281;BME280;11809;56.390;-3.266;2023-02-03T05:56:39;101541.69;;;14.79;55.12
23281;BME280;11809;56.390;-3.266;2023-02-03T05:59:07;101540.88;;;14.77;55.83
23281;BME280;11809;56.390;-3.266;2023-02-03T06:01:34;101547.03;;;14.78;55.68
23281;BME280;11809;56.390;-3.266;2023-02-03T06:04:02;101574.34;;;14.78;55.71
23281;BME280;11809;56.390;-3.266;2023-02-03T06:06:30;101555.81;;;14.78;55.60
23281;BME280;11809;56.390;-3.266;2023-02-03T06:09:01;101560.19;;;14.79;55.25
23281;BME280;11809;56.390;-3.266;2023-02-03T06:11:28;101567.19;;;14.80;55.24
23281;BME280;11809;56.390;-3.266;2023-02-03T06:13:56;101565.38;;;14.82;55.37
23281;BME280;11809;56.390;-3.266;2023-02-03T06:16:27;101576.78;;;14.83;55.39
23281;BME280;11809;56.390;-3.266;2023-02-03T06:18:55;101571.44;;;14.84;55.53
23281;BME280;11809;56.390;-3.266;2023-02-03T06:21:26;101580.25;;;14.85;55.45
23281;BME280;11809;56.390;-3.266;2023-02-03T06:23:53;101584.56;;;14.87;55.74
23281;BME280;11809;56.390;-3.266;2023-02-03T06:26:22;101602.13;;;14.88;55.64
23281;BME280;11809;56.390;-3.266;2023-02-03T06:28:49;101600.44;;;14.87;55.68
23281;BME280;11809;56.390;-3.266;2023-02-03T06:31:16;101607.31;;;14.91;55.66
23281;BME280;11809;56.390;-3.266;2023-02-03T06:33:43;101619.63;;;14.92;55.83
23281;BME280;11809;56.390;-3.266;2023-02-03T06:36:10;101612.59;;;14.91;56.12
23281;BME280;11809;56.390;-3.266;2023-02-03T06:38:37;101612.47;;;14.94;56.65
23281;BME280;11809;56.390;-3.266;2023-02-03T06:41:04;101624.56;;;15.00;56.56
23281;BME280;11809;56.390;-3.266;2023-02-03T06:43:30;101634.97;;;15.04;56.76
23281;BME280;11809;56.390;-3.266;2023-02-03T06:45:57;101647.28;;;15.05;56.66
23281;BME280;11809;56.390;-3.266;2023-02-03T06:48:24;101659.53;;;15.08;56.81
23281;BME280;11809;56.390;-3.266;2023-02-03T06:50:51;101670.03;;;15.09;56.69
23281;BME280;11809;56.390;-3.266;2023-02-03T06:53:18;101665.56;;;15.11;56.42
23281;BME280;11809;56.390;-3.266;2023-02-03T06:55:45;101661.97;;;15.12;56.42
23281;BME280;11809;56.390;-3.266;2023-02-03T06:58:13;101663.72;;;15.13;56.35
23281;BME280;11809;56.390;-3.266;2023-02-03T07:00:40;101672.53;;;15.14;56.49
23281;BME280;11809;56.390;-3.266;2023-02-03T07:03:07;101695.34;;;15.16;56.28
23281;BME280;11809;56.390;-3.266;2023-02-03T07:05:34;101692.72;;;15.16;56.28
23281;BME280;11809;56.390;-3.266;2023-02-03T07:08:02;101681.16;;;15.17;56.50
23281;BME280;11809;56.390;-3.266;2023-02-03T07:10:29;101675.81;;;15.19;56.25
23281;BME280;11809;56.390;-3.266;2023-02-03T07:13:01;101689.19;;;15.16;56.06
23281;BME280;11809;56.390;-3.266;2023-02-03T07:15:29;101693.53;;;15.17;56.06
23281;BME280;11809;56.390;-3.266;2023-02-03T07:17:56;101714.59;;;15.20;56.08
23281;BME280;11809;56.390;-3.266;2023-02-03T07:20:23;101690.72;;;15.22;56.11
23281;BME280;11809;56.390;-3.266;2023-02-03T07:22:54;101714.28;;;15.28;56.27
23281;BME280;11809;56.390;-3.266;2023-02-03T07:25:22;101727.38;;;15.31;56.10
23281;BME280;11809;56.390;-3.266;2023-02-03T07:27:50;101730.00;;;15.32;55.94
23281;BME280;11809;56.390;-3.266;2023-02-03T07:30:17;101735.31;;;15.31;54.74
23281;BME280;11809;56.390;-3.266;2023-02-03T07:32:51;101750.50;;;15.27;55.09
23281;BME280;11809;56.390;-3.266;2023-02-03T07:35:18;101746.13;;;15.26;55.44
23281;BME280;11809;56.390;-3.266;2023-02-03T07:37:46;101746.34;;;15.22;55.63
23281;BME280;11809;56.390;-3.266;2023-02-03T07:40:13;101761.34;;;15.21;55.81
23281;BME280;11809;56.390;-3.266;2023-02-03T07:42:42;101758.75;;;15.19;55.68
23281;BME280;11809;56.390;-3.266;2023-02-03T07:45:10;101770.28;;;15.18;55.87
23281;BME280;11809;56.390;-3.266;2023-02-03T07:47:37;101774.72;;;15.18;55.81
23281;BME280;11809;56.390;-3.266;2023-02-03T07:50:04;101782.78;;;15.15;55.85
23281;BME280;11809;56.390;-3.266;2023-02-03T07:52:32;101782.84;;;15.13;55.83
23281;BME280;11809;56.390;-3.266;2023-02-03T07:54:59;101781.13;;;15.12;55.86
23281;BME280;11809;56.390;-3.266;2023-02-03T07:57:26;101773.25;;;15.11;56.13
23281;BME280;11809;56.390;-3.266;2023-02-03T07:59:53;101775.94;;;15.09;56.23
23281;BME280;11809;56.390;-3.266;2023-02-03T08:02:20;101790.13;;;15.08;56.07
23281;BME280;11809;56.390;-3.266;2023-02-03T08:04:47;101786.59;;;15.08;56.18
23281;BME280;11809;56.390;-3.266;2023-02-03T08:07:14;101797.25;;;15.06;56.23
23281;BME280;11809;56.390;-3.266;2023-02-03T08:09:41;101804.34;;;15.06;56.40
23281;BME280;11809;56.390;-3.266;2023-02-03T08:12:08;101810.63;;;15.03;56.13
23281;BME280;11809;56.390;-3.266;2023-02-03T08:14:35;101819.41;;;15.04;56.13
23281;BME280;11809;56.390;-3.266;2023-02-03T08:17:02;101827.44;;;15.02;56.10
23281;BME280;11809;56.390;-3.266;2023-02-03T08:19:29;101837.16;;;15.02;56.19
23281;BME280;11809;56.390;-3.266;2023-02-03T08:21:56;101857.47;;;15.01;56.12
23281;BME280;11809;56.390;-3.266;2023-02-03T08:24:24;101864.53;;;15.01;56.27
23281;BME280;11809;56.390;-3.266;2023-02-03T08:26:51;101861.88;;;15.01;56.15
23281;BME280;11809;56.390;-3.266;2023-02-03T08:29:20;101871.63;;;15.00;56.47
23281;BME280;11809;56.390;-3.266;2023-02-03T08:31:47;101876.94;;;15.00;56.14
23281;BME280;11809;56.390;-3.266;2023-02-03T08:34:14;101878.75;;;14.98;56.23
23281;BME280;11809;56.390;-3.266;2023-02-03T08:36:55;101880.50;;;14.99;56.22
23281;BME280;11809;56.390;-3.266;2023-02-03T08:39:22;101897.28;;;14.98;56.28
23281;BME280;11809;56.390;-3.266;2023-02-03T08:41:49;101898.22;;;14.97;56.25
23281;BME280;11809;56.390;-3.266;2023-02-03T08:44:16;101896.50;;;14.96;56.29
23281;BME280;11809;56.390;-3.266;2023-02-03T08:46:52;101891.19;;;14.96;56.49
23281;BME280;11809;56.390;-3.266;2023-02-03T08:49:19;101895.63;;;14.96;56.28
23281;BME280;11809;56.390;-3.266;2023-02-03T08:51:46;101888.63;;;14.95;56.17
23281;BME280;11809;56.390;-3.266;2023-02-03T08:54:14;101885.91;;;14.96;56.31
23281;BME280;11809;56.390;-3.266;2023-02-03T08:56:41;101900.06;;;14.95;56.33
23281;BME280;11809;56.390;-3.266;2023-02-03T08:59:08;101905.38;;;14.95;56.46
23281;BME280;11809;56.390;-3.266;2023-02-03T09:01:35;101906.28;;;14.94;56.30
23281;BME280;11809;56.390;-3.266;2023-02-03T09:04:02;101917.78;;;14.93;56.30
23281;BME280;11809;56.390;-3.266;2023-02-03T09:06:29;101917.78;;;14.93;56.50
23281;BME280;11809;56.390;-3.266;2023-02-03T09:08:57;101916.94;;;14.93;56.49
23281;BME280;11809;56.390;-3.266;2023-02-03T09:11:23;101925.72;;;14.93;56.24
23281;BME280;11809;56.390;-3.266;2023-02-03T09:13:50;101922.22;;;14.93;56.36
23281;BME280;11809;56.390;-3.266;2023-02-03T09:16:18;101929.22;;;14.94;56.48
23281;BME280;11809;56.390;-3.266;2023-02-03T09:18:47;101928.38;;;14.93;56.26
23281;BME280;11809;56.390;-3.266;2023-02-03T09:21:15;101944.25;;;14.93;56.59
23281;BME280;11809;56.390;-3.266;2023-02-03T09:24:00;101950.47;;;14.92;56.50
23281;BME280;11809;56.390;-3.266;2023-02-03T09:26:28;101953.13;;;14.92;56.38
23281;BME280;11809;56.390;-3.266;2023-02-03T09:28:55;101962.78;;;14.93;56.42
23281;BME280;11809;56.390;-3.266;2023-02-03T09:31:22;101956.69;;;14.91;56.51
23281;BME280;11809;56.390;-3.266;2023-02-03T09:33:50;101960.25;;;14.90;56.34
23281;BME280;11809;56.390;-3.266;2023-02-03T09:36:16;101970.81;;;14.90;56.54
23281;BME280;11809;56.390;-3.266;2023-02-03T09:38:43;101962.88;;;14.90;56.57
23281;BME280;11809;56.390;-3.266;2023-02-03T09:47:11;101986.78;;;14.89;56.45
23281;BME280;11809;56.390;-3.266;2023-02-03T09:49:44;101985.00;;;14.89;56.56
23281;BME280;11809;56.390;-3.266;2023-02-03T09:52:17;101992.00;;;14.90;56.51
23281;BME280;11809;56.390;-3.266;2023-02-03T09:57:38;101992.94;;;14.89;56.35
23281;BME280;11809;56.390;-3.266;2023-02-03T10:00:40;101988.56;;;14.88;56.42
23281;BME280;11809;56.390;-3.266;2023-02-03T10:19:19;101979.88;;;14.85;56.55
23281;BME280;11809;56.390;-3.266;2023-02-03T10:21:56;101979.00;;;14.84;56.33
23281;BME280;11809;56.390;-3.266;2023-02-03T10:24:49;101981.66;;;14.84;56.43
23281;BME280;11809;56.390;-3.266;2023-02-03T10:27:22;101989.59;;;14.84;56.56
23281;BME280;11809;56.390;-3.266;2023-02-03T10:33:16;102013.34;;;14.86;56.70
23281;BME280;11809;56.390;-3.266;2023-02-03T10:36:01;102019.63;;;14.83;56.61
23281;BME280;11809;56.390;-3.266;2023-02-03T10:41:17;102034.59;;;14.84;56.61
23281;BME280;11809;56.390;-3.266;2023-02-03T10:43:46;102031.94;;;14.84;56.54
23281;BME280;11809;56.390;-3.266;2023-02-03T10:46:27;102041.59;;;14.85;56.38
23281;BME280;11809;56.390;-3.266;2023-02-03T10:48:54;102037.25;;;14.84;56.58
23281;BME280;11809;56.390;-3.266;2023-02-03T10:51:29;102046.88;;;14.85;56.63
23281;BME280;11809;56.390;-3.266;2023-02-03T10:54:00;102048.63;;;14.86;56.57
23281;BME280;11809;56.390;-3.266;2023-02-03T10:56:35;102050.41;;;14.86;56.56
23281;BME280;11809;56.390;-3.266;2023-02-03T10:59:03;102056.63;;;14.85;56.54
23281;BME280;11809;56.390;-3.266;2023-02-03T11:06:55;102081.28;;;14.85;56.62
23281;BME280;11809;56.390;-3.266;2023-02-03T11:09:46;102072.53;;;14.85;56.26
23281;BME280;11809;56.390;-3.266;2023-02-03T11:12:19;102067.16;;;14.86;56.53
23281;BME280;11809;56.390;-3.266;2023-02-03T11:14:50;102065.38;;;14.87;56.53
23281;BME280;11809;56.390;-3.266;2023-02-03T11:17:20;102061.88;;;14.86;56.59
23281;BME280;11809;56.390;-3.266;2023-02-03T11:19:58;102061.88;;;14.86;56.69
23281;BME280;11809;56.390;-3.266;2023-02-03T11:22:35;102069.00;;;14.84;56.58
23281;BME280;11809;56.390;-3.266;2023-02-03T11:25:04;102064.59;;;14.85;56.68
23281;BME280;11809;56.390;-3.266;2023-02-03T11:27:42;102070.72;;;14.85;56.44
23281;BME280;11809;56.390;-3.266;2023-02-03T11:30:19;102071.66;;;14.84;56.64
23281;BME280;11809;56.390;-3.266;2023-02-03T11:32:49;102072.53;;;14.85;56.69
23281;BME280;11809;56.390;-3.266;2023-02-03T11:35:20;102069.91;;;14.83;56.65
23281;BME280;11809;56.390;-3.266;2023-02-03T11:37:55;102071.75;;;14.81;56.58
23281;BME280;11809;56.390;-3.266;2023-02-03T11:40:30;102071.75;;;14.81;56.51
23281;BME280;11809;56.390;-3.266;2023-02-03T11:43:23;102075.28;;;14.82;56.66
23281;BME280;11809;56.390;-3.266;2023-02-03T11:45:52;102077.03;;;14.81;56.65
23281;BME280;11809;56.390;-3.266;2023-02-03T11:48:29;102081.47;;;14.81;56.74
23281;BME280;11809;56.390;-3.266;2023-02-03T12:05:30;102070.13;;;14.77;56.67
23281;BME280;11809;56.390;-3.266;2023-02-03T12:11:35;102069.28;;;14.77;56.62
23281;BME280;11809;56.390;-3.266;2023-02-03T12:19:42;102069.31;;;14.75;56.79
23281;BME280;11809;56.390;-3.266;2023-02-03T12:22:29;102073.69;;;14.76;56.66
23281;BME280;11809;56.390;-3.266;2023-02-03T12:30:20;102072.75;;;14.77;56.63
23281;BME280;11809;56.390;-3.266;2023-02-03T12:32:52;102063.13;;;14.76;56.61
23281;BME280;11809;56.390;-3.266;2023-02-03T12:35:37;102064.81;;;14.77;56.67
23281;BME280;11809;56.390;-3.266;2023-02-03T12:40:45;102068.41;;;14.76;56.54
23281;BME280;11809;56.390;-3.266;2023-02-03T12:46:16;102074.59;;;14.75;56.57
23281;BME280;11809;56.390;-3.266;2023-02-03T12:48:55;102066.66;;;14.75;56.82
23281;BME280;11809;56.390;-3.266;2023-02-03T12:51:37;102073.72;;;14.75;56.72
23281;BME280;11809;56.390;-3.266;2023-02-03T12:56:52;102076.44;;;14.73;56.64
23281;BME280;11809;56.390;-3.266;2023-02-03T12:59:22;102079.97;;;14.74;56.75
23281;BME280;11809;56.390;-3.266;2023-02-03T13:01:56;102084.38;;;14.73;56.78
23281;BME280;11809;56.390;-3.266;2023-02-03T13:04:42;102076.44;;;14.73;56.82
23281;BME280;11809;56.390;-3.266;2023-02-03T13:07:32;102084.38;;;14.73;56.92
23281;BME280;11809;56.390;-3.266;2023-02-03T13:10:13;102077.34;;;14.72;56.92
23281;BME280;11809;56.390;-3.266;2023-02-03T13:12:45;102074.69;;;14.72;56.88
23281;BME280;11809;56.390;-3.266;2023-02-03T13:15:24;102070.28;;;14.73;56.73
23281;BME280;11809;56.390;-3.266;2023-02-03T13:20:30;102071.19;;;14.72;56.78
23281;BME280;11809;56.390;-3.266;2023-02-03T13:23:12;102074.78;;;14.71;56.91
23281;BME280;11809;56.390;-3.266;2023-02-03T13:31:40;102061.47;;;14.72;56.74
23281;BME280;11809;56.390;-3.266;2023-02-03T13:42:17;102069.38;;;14.74;57.07
23281;BME280;11809;56.390;-3.266;2023-02-03T13:44:51;102069.38;;;14.74;56.83
23281;BME280;11809;56.390;-3.266;2023-02-03T13:47:26;102073.81;;;14.73;57.00
23281;BME280;11809;56.390;-3.266;2023-02-03T13:49:58;102074.66;;;14.74;56.81
23281;BME280;11809;56.390;-3.266;2023-02-03T13:52:34;102084.38;;;14.73;56.80
23281;BME280;11809;56.390;-3.266;2023-02-03T13:55:03;102083.50;;;14.73;56.71
23281;BME280;11809;56.390;-3.266;2023-02-03T13:57:34;102083.47;;;14.74;56.93
23281;BME280;11809;56.390;-3.266;2023-02-03T14:02:55;102075.53;;;14.74;56.62
23281;BME280;11809;56.390;-3.266;2023-02-03T14:05:43;102081.78;;;14.72;56.96
23281;BME280;11809;56.390;-3.266;2023-02-03T14:16:37;102095.00;;;14.72;57.28
23281;BME280;11809;56.390;-3.266;2023-02-03T14:19:11;102087.94;;;14.72;57.24
23281;BME280;11809;56.390;-3.266;2023-02-03T14:21:51;102100.34;;;14.70;57.46
23281;BME280;11809;56.390;-3.266;2023-02-03T14:24:20;102108.19;;;14.73;57.42
23281;BME280;11809;56.390;-3.266;2023-02-03T14:26:52;102116.03;;;14.76;57.62
23281;BME280;11809;56.390;-3.266;2023-02-03T14:29:28;102108.03;;;14.78;57.43
23281;BME280;11809;56.390;-3.266;2023-02-03T14:32:00;102113.22;;;14.81;57.42
23281;BME280;11809;56.390;-3.266;2023-02-03T14:34:31;102109.69;;;14.82;57.56
23281;BME280;11809;56.390;-3.266;2023-02-03T14:37:20;102112.25;;;14.83;57.51
23281;BME280;11809;56.390;-3.266;2023-02-03T14:45:59;102116.53;;;14.87;57.55
23281;BME280;11809;56.390;-3.266;2023-02-03T15:00:02;102120.50;;;15.00;57.92
23281;BME280;11809;56.390;-3.266;2023-02-03T15:02:32;102124.84;;;15.01;57.63
23281;BME280;11809;56.390;-3.266;2023-02-03T15:12:55;102129.25;;;15.02;57.45
23281;BME280;11809;56.390;-3.266;2023-02-03T15:15:26;102133.63;;;15.03;57.40
23281;BME280;11809;56.390;-3.266;2023-02-03T15:17:59;102146.00;;;15.03;57.19
23281;BME280;11809;56.390;-3.266;2023-02-03T15:22:56;102154.84;;;15.02;57.22
23281;BME280;11809;56.390;-3.266;2023-02-03T15:25:24;102155.75;;;15.01;57.37
23281;BME280;11809;56.390;-3.266;2023-02-03T15:27:53;102153.97;;;15.01;57.34
23281;BME280;11809;56.390;-3.266;2023-02-03T15:30:22;102152.25;;;15.00;57.19
23281;BME280;11809;56.390;-3.266;2023-02-03T15:33:05;102158.41;;;15.01;57.04
23281;BME280;11809;56.390;-3.266;2023-02-03T15:35:35;102167.28;;;15.00;57.20
23281;BME280;11809;56.390;-3.266;2023-02-03T15:38:07;102168.16;;;15.00;57.28
23281;BME280;11809;56.390;-3.266;2023-02-03T15:40:47;102173.44;;;15.00;57.15
23281;BME280;11809;56.390;-3.266;2023-02-03T15:43:20;102176.09;;;15.00;57.40
23281;BME280;11809;56.390;-3.266;2023-02-03T15:46:08;102167.28;;;15.00;57.06